Minnetrista, Minnesota
Current Conditions -  °F | °C
As of 2:53 PM on Sunday 21 Dec 2014 (Local Time) from KFCM Reporting Station
Light Rain Light Rain  
Wind Chill: 28°   Ceiling: 600
Heat Index: 36°   Visibility: 3mi
Dew Point: 34°   Wind: 10mph
Humidity: 93%   Direction: 160°SSE
Pressure: 29.73"   Gusts: NA
Location:  44.8587°N, 93.7796°W
Report Text: KFCM 212053Z 16009KT 3SM -RA BR OVC006 02/01 A2973 RMK AO2 CIG 005V009 SLP077 P0001 60002 T00220011 56023
Loading
Personal Weather Stations






























Interactive Weather Map New forecast layout! Learn more

10-Day Weather Forecast

Advertisements
Track Severe Weather on mobile